createdAt,value
2022-10-18T00:02:08.351Z,99199.28
2022-10-18T00:04:34.999Z,99200.00
2022-10-18T00:07:01.564Z,99205.38
2022-10-18T00:09:28.152Z,99205.84
2022-10-18T00:11:55.693Z,99207.13
2022-10-18T00:14:22.835Z,99203.41
2022-10-18T00:16:49.466Z,99211.81
2022-10-18T00:19:16.002Z,99217.75
2022-10-18T00:24:14.354Z,99209.94
2022-10-18T00:26:40.936Z,99204.53
2022-10-18T00:29:07.494Z,99211.78
2022-10-18T00:31:36.208Z,99215.63
2022-10-18T00:34:06.174Z,99216.84
2022-10-18T00:36:34.321Z,99211.97
2022-10-18T00:39:02.491Z,99211.44
2022-10-18T00:41:31.099Z,99212.50
2022-10-18T00:44:07.342Z,99203.25
2022-10-18T00:46:36.131Z,99206.91
2022-10-18T00:49:06.645Z,99200.03
2022-10-18T00:52:13.536Z,99208.28
2022-10-18T00:54:42.097Z,99199.28
2022-10-18T00:57:08.904Z,99209.59
2022-10-18T00:59:36.007Z,99207.53
2022-10-18T01:02:02.894Z,99208.16
2022-10-18T01:04:29.448Z,99207.28
2022-10-18T01:07:25.475Z,99210.22
2022-10-18T01:10:13.966Z,99211.28
2022-10-18T01:13:07.860Z,99217.19
2022-10-18T01:15:57.511Z,99212.19
2022-10-18T01:18:40.411Z,99211.75
2022-10-18T01:21:23.089Z,99210.81
2022-10-18T01:24:20.595Z,99205.66
2022-10-18T01:27:08.610Z,99202.59
2022-10-18T01:29:53.818Z,99205.41
2022-10-18T01:32:27.184Z,99206.28
2022-10-18T01:34:59.816Z,99208.34
2022-10-18T01:37:28.171Z,99206.91
2022-10-18T01:39:56.017Z,99212.22
2022-10-18T01:42:22.451Z,99213.56
2022-10-18T01:44:50.873Z,99214.13
2022-10-18T01:47:18.359Z,99214.28
2022-10-18T01:49:44.935Z,99208.81
2022-10-18T01:52:15.865Z,99207.06
2022-10-18T01:54:48.985Z,99201.00
2022-10-18T01:57:21.471Z,99204.41
2022-10-18T02:00:29.875Z,99203.66
2022-10-18T02:03:06.988Z,99201.28
2022-10-18T02:05:40.469Z,99204.53
2022-10-18T02:08:26.362Z,99197.44
2022-10-18T02:11:01.574Z,99204.78
2022-10-18T02:13:33.645Z,99207.59
2022-10-18T02:16:05.413Z,99205.00
2022-10-18T02:18:55.983Z,99199.75
2022-10-18T02:21:23.174Z,99205.47
2022-10-18T02:23:50.204Z,99196.50
2022-10-18T02:26:16.903Z,99201.06
2022-10-18T02:28:43.994Z,99197.16
2022-10-18T02:31:24.131Z,99197.63
2022-10-18T02:33:52.794Z,99197.13
2022-10-18T02:36:27.416Z,99189.06
2022-10-18T02:38:58.821Z,99190.94
2022-10-18T02:41:26.607Z,99190.16
2022-10-18T02:43:53.132Z,99191.16
2022-10-18T02:46:20.505Z,99194.03
2022-10-18T02:48:47.121Z,99194.88
2022-10-18T02:51:13.664Z,99192.06
2022-10-18T02:53:40.317Z,99187.47
2022-10-18T02:56:06.970Z,99188.38
2022-10-18T02:58:33.455Z,99181.91
2022-10-18T03:01:00.381Z,99185.16
2022-10-18T03:03:26.954Z,99186.63
2022-10-18T03:05:53.494Z,99194.72
2022-10-18T03:08:20.120Z,99182.28
2022-10-18T03:10:47.068Z,99190.72
2022-10-18T03:13:13.941Z,99182.78
2022-10-18T03:15:40.554Z,99185.03
2022-10-18T03:18:07.129Z,99185.31
2022-10-18T03:20:35.175Z,99182.38
2022-10-18T03:23:03.236Z,99183.53
2022-10-18T03:25:29.768Z,99190.03
2022-10-18T03:27:56.319Z,99182.53
2022-10-18T03:30:22.837Z,99176.72
2022-10-18T03:32:49.372Z,99177.06
2022-10-18T03:35:16.081Z,99175.97
2022-10-18T03:37:42.679Z,99174.88
2022-10-18T03:40:09.468Z,99168.53
2022-10-18T03:42:36.203Z,99176.06
2022-10-18T03:45:02.790Z,99176.13
2022-10-18T03:47:29.303Z,99168.72
2022-10-18T03:49:57.237Z,99174.97
2022-10-18T03:52:24.361Z,99173.72
2022-10-18T03:54:50.878Z,99176.75
2022-10-18T03:57:17.406Z,99166.00
2022-10-18T03:59:44.181Z,99177.84
2022-10-18T04:02:10.785Z,99177.59
2022-10-18T04:04:37.472Z,99173.78
2022-10-18T04:07:04.074Z,99168.66
2022-10-18T04:09:30.639Z,99168.88
2022-10-18T04:11:57.166Z,99164.75
2022-10-18T04:14:23.727Z,99168.34
2022-10-18T04:16:50.334Z,99170.56
2022-10-18T04:19:16.984Z,99173.53
2022-10-18T04:21:43.492Z,99178.38
2022-10-18T04:24:10.067Z,99178.38
2022-10-18T04:26:36.653Z,99185.13
2022-10-18T04:29:03.964Z,99184.38
2022-10-18T04:31:30.802Z,99175.91
2022-10-18T04:33:57.312Z,99176.84
2022-10-18T04:36:23.800Z,99176.13
2022-10-18T04:38:50.293Z,99176.06
2022-10-18T04:41:16.813Z,99183.03
2022-10-18T04:43:43.407Z,99188.06
2022-10-18T04:46:10.007Z,99181.41
2022-10-18T04:48:36.583Z,99187.28
2022-10-18T04:51:03.270Z,99188.06
2022-10-18T04:53:29.876Z,99187.47
2022-10-18T04:55:56.455Z,99189.84
2022-10-18T04:58:23.542Z,99196.50
2022-10-18T05:00:50.365Z,99192.88
2022-10-18T05:03:17.049Z,99187.78
2022-10-18T05:06:00.927Z,99187.53
2022-10-18T05:08:27.849Z,99183.19
2022-10-18T05:10:54.556Z,99193.41
2022-10-18T05:13:21.186Z,99186.88
2022-10-18T05:15:47.776Z,99195.44
2022-10-18T05:18:14.536Z,99194.22
2022-10-18T05:20:41.055Z,99190.28
2022-10-18T05:23:10.747Z,99191.56
2022-10-18T05:25:41.210Z,99192.34
2022-10-18T05:28:11.063Z,99188.38
2022-10-18T05:30:47.821Z,99187.91
2022-10-18T05:33:14.367Z,99181.75
2022-10-18T05:35:40.840Z,99188.97
2022-10-18T05:38:07.667Z,99194.31
2022-10-18T05:40:34.253Z,99188.69
2022-10-18T05:43:00.782Z,99190.78
2022-10-18T05:45:27.412Z,99188.69
2022-10-18T05:47:54.615Z,99197.63
2022-10-18T05:50:21.139Z,99193.97
2022-10-18T05:52:47.637Z,99197.06
2022-10-18T05:55:14.257Z,99194.41
2022-10-18T05:57:40.844Z,99191.47
2022-10-18T06:00:08.097Z,99190.69
2022-10-18T06:02:38.399Z,99191.47
2022-10-18T06:05:05.166Z,99195.06
2022-10-18T06:07:31.958Z,99199.81
2022-10-18T06:09:58.686Z,99188.50
2022-10-18T06:12:25.317Z,99193.66
2022-10-18T06:14:51.896Z,99200.19
2022-10-18T06:17:18.848Z,99194.31
2022-10-18T06:19:45.593Z,99202.44
2022-10-18T06:22:12.495Z,99197.69
2022-10-18T06:24:38.987Z,99204.16
2022-10-18T06:27:08.837Z,99199.38
2022-10-18T06:29:36.226Z,99202.41
2022-10-18T06:32:03.353Z,99205.09
2022-10-18T06:34:29.896Z,99199.19
2022-10-18T06:36:58.655Z,99201.56
2022-10-18T06:39:25.864Z,99206.16
2022-10-18T06:41:52.516Z,99208.66
2022-10-18T06:44:20.353Z,99207.19
2022-10-18T06:46:48.093Z,99213.84
2022-10-18T06:49:18.228Z,99206.75
2022-10-18T06:51:46.140Z,99206.63
2022-10-18T06:54:18.188Z,99212.69
2022-10-18T06:56:45.150Z,99226.28
2022-10-18T06:59:11.720Z,99225.59
2022-10-18T07:01:38.455Z,99227.84
2022-10-18T07:04:05.112Z,99222.63
2022-10-18T07:06:31.601Z,99227.66
2022-10-18T07:08:58.271Z,99218.22
2022-10-18T07:11:26.742Z,99220.72
2022-10-18T07:13:54.488Z,99225.19
2022-10-18T07:16:21.371Z,99227.41
2022-10-18T07:18:50.446Z,99221.44
2022-10-18T07:21:19.376Z,99221.38
2022-10-18T07:23:46.359Z,99221.06
2022-10-18T07:26:20.018Z,99224.47
2022-10-18T07:28:49.960Z,99230.34
2022-10-18T07:31:16.599Z,99238.13
2022-10-18T07:33:43.156Z,99232.78
2022-10-18T07:36:11.045Z,99232.63
2022-10-18T07:38:37.709Z,99239.44
2022-10-18T07:41:06.802Z,99235.59
2022-10-18T07:43:33.867Z,99237.66
2022-10-18T07:46:02.850Z,99237.31
2022-10-18T07:48:29.823Z,99232.09
2022-10-18T07:51:00.625Z,99238.50
2022-10-18T07:53:29.127Z,99243.72
2022-10-18T07:56:01.341Z,99224.63
2022-10-18T07:58:31.784Z,99228.06
2022-10-18T08:01:02.370Z,99230.66
2022-10-18T08:03:28.933Z,99239.34
2022-10-18T08:05:55.567Z,99236.06
2022-10-18T08:08:23.819Z,99234.84
2022-10-18T08:10:50.910Z,99236.94
2022-10-18T08:13:17.811Z,99231.56
2022-10-18T08:15:44.562Z,99238.69
2022-10-18T08:18:11.478Z,99250.09
2022-10-18T08:20:42.730Z,99243.34
2022-10-18T08:23:09.436Z,99254.50
2022-10-18T08:28:07.564Z,99252.41
2022-10-18T08:30:35.454Z,99255.97
2022-10-18T08:33:02.824Z,99259.00
2022-10-18T08:35:29.430Z,99263.06
2022-10-18T08:37:55.949Z,99265.13
2022-10-18T08:40:22.669Z,99265.56
2022-10-18T08:43:22.029Z,99268.13
2022-10-18T08:45:49.697Z,99275.72
2022-10-18T08:48:39.053Z,99274.03
2022-10-18T08:51:27.274Z,99271.31
2022-10-18T08:54:11.388Z,99270.25
2022-10-18T08:56:39.541Z,99269.13
2022-10-18T08:59:10.357Z,99267.41
2022-10-18T09:02:01.583Z,99281.16
2022-10-18T09:05:07.103Z,99277.44
2022-10-18T09:08:23.257Z,99282.72
2022-10-18T09:11:06.111Z,99289.09
2022-10-18T09:13:59.751Z,99284.91
2022-10-18T09:16:40.411Z,99276.34
2022-10-18T09:19:46.087Z,99279.53
2022-10-18T09:22:14.423Z,99297.06
2022-10-18T09:24:46.641Z,99303.22
2022-10-18T09:27:18.887Z,99310.69
2022-10-18T09:29:49.059Z,99304.47
2022-10-18T09:32:25.420Z,99301.28
2022-10-18T09:34:55.587Z,99304.72
2022-10-18T09:37:22.338Z,99290.22
2022-10-18T09:39:50.736Z,99292.44
2022-10-18T09:42:36.051Z,99302.97
2022-10-18T09:45:08.552Z,99303.31
2022-10-18T09:47:39.451Z,99310.50
2022-10-18T09:50:18.049Z,99306.91
2022-10-18T09:52:53.441Z,99302.69
2022-10-18T09:55:23.240Z,99311.63
2022-10-18T09:57:56.476Z,99311.75
2022-10-18T10:00:29.058Z,99310.94
2022-10-18T10:02:56.176Z,99314.16
2022-10-18T10:05:22.736Z,99313.97
2022-10-18T10:07:49.376Z,99315.38
2022-10-18T10:10:24.014Z,99308.97
2022-10-18T10:13:05.896Z,99311.22
2022-10-18T10:15:37.081Z,99313.72
2022-10-18T10:18:19.242Z,99320.94
2022-10-18T10:20:49.017Z,99309.78
2022-10-18T10:23:30.747Z,99315.16
2022-10-18T10:26:25.332Z,99313.34
2022-10-18T10:28:52.197Z,99319.56
2022-10-18T10:31:24.745Z,99309.06
2022-10-18T10:34:18.485Z,99308.78
2022-10-18T10:36:53.199Z,99305.03
2022-10-18T10:39:22.331Z,99307.59
2022-10-18T10:41:57.374Z,99310.25
2022-10-18T10:44:29.610Z,99296.78
2022-10-18T10:46:56.739Z,99304.34
2022-10-18T10:49:45.767Z,99305.94
2022-10-18T10:52:28.553Z,99306.91
2022-10-18T10:57:48.725Z,99293.84
2022-10-18T11:00:34.169Z,99299.31
2022-10-18T11:03:33.749Z,99291.31
2022-10-18T11:06:01.698Z,99297.34
2022-10-18T11:08:41.133Z,99292.94
2022-10-18T11:11:22.852Z,99293.41
2022-10-18T11:14:13.257Z,99295.84
2022-10-18T11:17:08.076Z,99288.34
2022-10-18T11:19:43.005Z,99285.84
2022-10-18T11:22:14.277Z,99277.91
2022-10-18T11:24:41.419Z,99285.03
2022-10-18T11:27:19.447Z,99283.25
2022-10-18T11:30:01.510Z,99287.97
2022-10-18T11:32:38.461Z,99270.47
2022-10-18T11:35:43.481Z,99275.47
2022-10-18T11:38:15.806Z,99270.16
2022-10-18T11:41:22.528Z,99272.16
2022-10-18T11:44:03.100Z,99274.00
2022-10-18T11:46:54.841Z,99278.38
2022-10-18T11:49:39.133Z,99269.97
2022-10-18T11:52:14.022Z,99262.56
2022-10-18T11:55:01.962Z,99264.34
2022-10-18T11:57:50.409Z,99276.63
2022-10-18T12:00:39.362Z,99276.94
2022-10-18T12:03:24.340Z,99274.91
2022-10-18T12:05:53.211Z,99267.13
2022-10-18T12:08:31.509Z,99265.41
2022-10-18T12:11:05.920Z,99265.19
2022-10-18T12:13:52.364Z,99265.53
2022-10-18T12:16:33.790Z,99263.59
2022-10-18T12:19:12.541Z,99262.09
2022-10-18T12:21:39.360Z,99264.91
2022-10-18T12:24:13.595Z,99255.31
2022-10-18T12:26:40.288Z,99252.16
2022-10-18T12:29:18.384Z,99249.22
2022-10-18T12:31:53.798Z,99251.16
2022-10-18T12:34:23.838Z,99249.63
2022-10-18T12:36:53.299Z,99254.75
2022-10-18T12:39:45.089Z,99254.44
2022-10-18T12:42:19.157Z,99243.53
2022-10-18T12:44:46.476Z,99237.69
2022-10-18T12:47:24.711Z,99251.28
2022-10-18T12:50:01.975Z,99246.50
2022-10-18T12:52:30.605Z,99252.38
2022-10-18T12:55:18.285Z,99248.84
2022-10-18T12:57:53.996Z,99239.38
2022-10-18T13:00:29.705Z,99241.53
2022-10-18T13:03:17.908Z,99242.31
2022-10-18T13:05:55.933Z,99249.22
2022-10-18T13:08:29.038Z,99251.16
2022-10-18T13:11:01.394Z,99251.84
2022-10-18T13:13:54.725Z,99248.88
2022-10-18T13:17:00.607Z,99256.34
2022-10-18T13:19:30.107Z,99247.75
2022-10-18T13:22:30.548Z,99239.00
2022-10-18T13:25:15.812Z,99252.38
2022-10-18T13:27:56.273Z,99248.44
2022-10-18T13:30:33.396Z,99255.56
2022-10-18T13:33:34.821Z,99250.91
2022-10-18T13:36:03.991Z,99248.88
2022-10-18T13:38:57.824Z,99244.84
2022-10-18T13:41:32.769Z,99249.91
2022-10-18T13:44:30.669Z,99248.44
2022-10-18T13:46:57.155Z,99256.81
2022-10-18T13:49:40.204Z,99251.59
2022-10-18T13:52:28.435Z,99249.13
2022-10-18T13:55:19.320Z,99255.25
2022-10-18T13:57:57.928Z,99254.44
2022-10-18T14:00:49.133Z,99257.13
2022-10-18T14:03:58.870Z,99258.13
2022-10-18T14:06:33.531Z,99257.81
2022-10-18T14:09:26.229Z,99269.09
2022-10-18T14:12:33.526Z,99261.19
2022-10-18T14:15:16.580Z,99259.78
2022-10-18T14:17:51.931Z,99264.59
2022-10-18T14:20:34.449Z,99263.00
2022-10-18T14:23:12.927Z,99264.94
2022-10-18T14:25:39.516Z,99269.19
2022-10-18T14:28:12.321Z,99263.47
2022-10-18T14:30:59.377Z,99262.22
2022-10-18T14:33:41.130Z,99276.72
2022-10-18T14:36:19.677Z,99273.00
2022-10-18T14:38:57.696Z,99274.50
2022-10-18T14:41:29.607Z,99271.28
2022-10-18T14:44:14.707Z,99280.91
2022-10-18T14:47:04.470Z,99278.91
2022-10-18T14:49:31.482Z,99276.78
2022-10-18T14:51:59.556Z,99275.38
2022-10-18T14:54:34.425Z,99280.00
2022-10-18T14:57:05.575Z,99279.16
2022-10-18T15:00:06.569Z,99273.09
2022-10-18T15:02:36.472Z,99273.63
2022-10-18T15:05:09.356Z,99268.31
2022-10-18T15:07:36.025Z,99275.16
2022-10-18T15:10:07.850Z,99274.84
2022-10-18T15:12:57.755Z,99273.91
2022-10-18T15:15:33.506Z,99269.56
2022-10-18T15:18:00.502Z,99280.66
2022-10-18T15:20:32.647Z,99276.44
2022-10-18T15:23:27.471Z,99277.84
2022-10-18T15:26:02.448Z,99275.25
2022-10-18T15:28:52.236Z,99270.94
2022-10-18T15:31:24.549Z,99269.59
2022-10-18T15:33:51.688Z,99267.72
2022-10-18T15:36:29.717Z,99267.63
2022-10-18T15:39:07.580Z,99267.38
2022-10-18T15:41:46.128Z,99263.59
2022-10-18T15:44:42.426Z,99262.97
2022-10-18T15:47:12.502Z,99265.31
2022-10-18T15:49:45.061Z,99264.19
2022-10-18T15:52:35.190Z,99263.22
2022-10-18T15:55:34.689Z,99259.06
2022-10-18T15:58:06.405Z,99266.16
2022-10-18T16:00:43.285Z,99263.72
2022-10-18T16:03:14.690Z,99266.06
2022-10-18T16:05:46.546Z,99264.19
2022-10-18T16:08:49.391Z,99265.09
2022-10-18T16:11:25.697Z,99268.75
2022-10-18T16:13:55.215Z,99278.19
2022-10-18T16:16:26.782Z,99277.94
2022-10-18T16:18:53.611Z,99280.03
2022-10-18T16:21:28.291Z,99279.00
2022-10-18T16:23:55.084Z,99278.41
2022-10-18T16:26:22.599Z,99278.97
2022-10-18T16:28:50.229Z,99277.03
2022-10-18T16:31:22.219Z,99281.19
2022-10-18T16:33:50.829Z,99279.56
2022-10-18T16:36:19.366Z,99285.72
2022-10-18T16:38:46.386Z,99282.13
2022-10-18T16:41:15.907Z,99284.84
2022-10-18T16:43:44.507Z,99287.34
2022-10-18T16:46:19.660Z,99292.34
2022-10-18T16:48:46.826Z,99296.31
2022-10-18T16:51:14.673Z,99298.84
2022-10-18T16:53:41.772Z,99300.19
2022-10-18T16:56:17.024Z,99308.97
2022-10-18T16:58:43.950Z,99306.38
2022-10-18T17:01:16.365Z,99310.44
2022-10-18T17:03:43.637Z,99313.28
2022-10-18T17:06:17.751Z,99318.84
2022-10-18T17:08:44.473Z,99311.91
2022-10-18T17:11:12.430Z,99317.41
2022-10-18T17:13:40.057Z,99322.66
2022-10-18T17:16:06.860Z,99329.91
2022-10-18T17:18:33.526Z,99327.91
2022-10-18T17:21:03.046Z,99333.72
2022-10-18T17:23:30.387Z,99331.72
2022-10-18T17:26:05.356Z,99331.66
2022-10-18T17:28:34.230Z,99342.25
2022-10-18T17:31:00.919Z,99336.91
2022-10-18T17:33:27.483Z,99342.09
2022-10-18T17:35:54.076Z,99335.72
2022-10-18T17:38:20.680Z,99333.00
2022-10-18T17:40:47.628Z,99334.50
2022-10-18T17:43:14.368Z,99332.63
2022-10-18T17:45:54.662Z,99339.03
2022-10-18T17:48:22.822Z,99334.19
2022-10-18T17:50:49.378Z,99342.31
2022-10-18T17:53:18.328Z,99340.25
2022-10-18T17:55:45.045Z,99334.06
2022-10-18T17:58:12.040Z,99335.44
2022-10-18T18:00:38.772Z,99337.69
2022-10-18T18:03:05.511Z,99342.44
2022-10-18T18:05:34.044Z,99347.47
2022-10-18T18:08:03.846Z,99348.97
2022-10-18T18:10:33.370Z,99353.38
2022-10-18T18:13:00.423Z,99349.22
2022-10-18T18:15:27.098Z,99355.53
2022-10-18T18:17:57.409Z,99351.28
2022-10-18T18:20:26.456Z,99351.66
2022-10-18T18:22:54.914Z,99356.53
2022-10-18T18:25:21.576Z,99355.53
2022-10-18T18:27:48.307Z,99359.91
2022-10-18T18:30:17.638Z,99352.72
2022-10-18T18:32:44.406Z,99350.53
2022-10-18T18:35:11.081Z,99350.25
2022-10-18T18:37:37.870Z,99347.63
2022-10-18T18:40:04.760Z,99344.72
2022-10-18T18:42:32.264Z,99347.22
2022-10-18T18:44:58.911Z,99351.22
2022-10-18T18:47:27.046Z,99344.44
2022-10-18T18:49:53.971Z,99346.03
2022-10-18T18:52:20.530Z,99351.13
2022-10-18T18:54:47.019Z,99354.09
2022-10-18T18:57:13.604Z,99353.03
2022-10-18T18:59:40.139Z,99343.84
2022-10-18T19:02:06.721Z,99346.16
2022-10-18T19:04:34.945Z,99348.38
2022-10-18T19:07:02.545Z,99342.69
2022-10-18T19:09:29.195Z,99343.50
2022-10-18T19:11:56.538Z,99343.91
2022-10-18T19:14:25.406Z,99342.72
2022-10-18T19:16:53.916Z,99334.41
2022-10-18T19:19:22.644Z,99332.25
2022-10-18T19:22:00.684Z,99336.25
2022-10-18T19:24:28.652Z,99333.16
2022-10-18T19:27:00.828Z,99325.50
2022-10-18T19:29:28.586Z,99334.25
2022-10-18T19:31:57.339Z,99332.84
2022-10-18T19:34:26.272Z,99331.19
2022-10-18T19:36:52.886Z,99335.50
2022-10-18T19:39:21.934Z,99334.44
2022-10-18T19:41:50.994Z,99334.31
2022-10-18T19:44:18.936Z,99337.56
2022-10-18T19:46:45.634Z,99328.41
2022-10-18T19:49:12.185Z,99324.53
2022-10-18T19:51:38.784Z,99330.94
2022-10-18T19:54:05.632Z,99333.75
2022-10-18T19:56:32.212Z,99331.69
2022-10-18T19:58:59.359Z,99327.56
2022-10-18T20:01:27.998Z,99327.25
2022-10-18T20:03:54.720Z,99327.00
2022-10-18T20:06:21.631Z,99328.06
2022-10-18T20:08:48.814Z,99333.38
2022-10-18T20:11:17.755Z,99337.06
2022-10-18T20:13:44.428Z,99329.97
2022-10-18T20:16:12.650Z,99332.91
2022-10-18T20:18:39.278Z,99334.25
2022-10-18T20:21:07.116Z,99330.72
2022-10-18T20:23:37.974Z,99333.22
2022-10-18T20:26:10.733Z,99339.16
2022-10-18T20:28:38.231Z,99336.19
2022-10-18T20:31:07.390Z,99333.66
2022-10-18T20:33:34.856Z,99339.38
2022-10-18T20:36:09.893Z,99343.28
2022-10-18T20:38:38.625Z,99335.22
2022-10-18T20:41:16.911Z,99337.66
2022-10-18T20:43:44.215Z,99327.09
2022-10-18T20:46:10.954Z,99327.41
2022-10-18T20:48:38.802Z,99330.09
2022-10-18T20:51:12.684Z,99326.19
2022-10-18T20:53:39.900Z,99328.69
2022-10-18T20:56:14.596Z,99333.28
2022-10-18T20:58:42.829Z,99329.59
2022-10-18T21:01:30.820Z,99329.59
2022-10-18T21:04:00.251Z,99320.00
2022-10-18T21:06:28.829Z,99325.78
2022-10-18T21:09:00.141Z,99322.94
2022-10-18T21:11:28.244Z,99326.94
2022-10-18T21:13:57.476Z,99312.00
2022-10-18T21:16:24.235Z,99310.69
2022-10-18T21:18:51.039Z,99322.94
2022-10-18T21:21:24.691Z,99322.19
2022-10-18T21:23:52.240Z,99309.34
2022-10-18T21:26:23.570Z,99319.25
2022-10-18T21:28:51.229Z,99317.97
2022-10-18T21:31:20.557Z,99325.81
2022-10-18T21:33:48.106Z,99330.50
2022-10-18T21:36:14.891Z,99320.81
2022-10-18T21:38:44.688Z,99320.66
2022-10-18T21:41:13.315Z,99320.19
2022-10-18T21:43:41.880Z,99321.16
2022-10-18T21:46:10.043Z,99317.66
2022-10-18T21:48:37.048Z,99318.56
2022-10-18T21:51:07.865Z,99315.28
2022-10-18T21:53:34.683Z,99311.19
2022-10-18T21:56:09.803Z,99311.47
2022-10-18T21:58:37.169Z,99298.03
2022-10-18T22:01:09.397Z,99290.19
2022-10-18T22:03:36.253Z,99293.31
2022-10-18T22:06:09.521Z,99297.28
2022-10-18T22:08:36.256Z,99289.28
2022-10-18T22:11:03.162Z,99290.25
2022-10-18T22:13:29.797Z,99297.25
2022-10-18T22:15:56.450Z,99288.22
2022-10-18T22:18:23.061Z,99295.44
2022-10-18T22:21:00.558Z,99292.19
2022-10-18T22:23:43.680Z,99295.72
2022-10-18T22:26:23.271Z,99293.09
2022-10-18T22:29:00.823Z,99290.81
2022-10-18T22:31:29.870Z,99286.78
2022-10-18T22:33:58.854Z,99288.13
2022-10-18T22:36:26.334Z,99286.09
2022-10-18T22:38:53.023Z,99286.13
2022-10-18T22:41:20.080Z,99289.72
2022-10-18T22:43:48.311Z,99290.16
2022-10-18T22:46:15.422Z,99284.47
2022-10-18T22:48:42.439Z,99280.34
2022-10-18T22:51:09.673Z,99277.44
2022-10-18T22:53:37.055Z,99280.81
2022-10-18T22:56:04.272Z,99274.81
2022-10-18T22:58:30.877Z,99279.47
2022-10-18T23:01:05.708Z,99273.78
2022-10-18T23:03:32.696Z,99272.47
2022-10-18T23:05:59.619Z,99273.59
2022-10-18T23:08:26.667Z,99274.38
2022-10-18T23:10:55.552Z,99268.56
2022-10-18T23:13:23.616Z,99264.91
2022-10-18T23:15:50.483Z,99264.22
2022-10-18T23:18:17.685Z,99268.34
2022-10-18T23:20:44.803Z,99266.63
2022-10-18T23:23:12.645Z,99262.59
2022-10-18T23:25:39.407Z,99267.19
2022-10-18T23:28:06.388Z,99264.06
2022-10-18T23:30:33.772Z,99262.13
2022-10-18T23:33:00.278Z,99264.59
2022-10-18T23:35:29.309Z,99263.03
2022-10-18T23:37:56.359Z,99256.09
2022-10-18T23:40:22.851Z,99260.84
2022-10-18T23:42:49.423Z,99259.69
2022-10-18T23:45:16.025Z,99254.56
2022-10-18T23:47:42.623Z,99251.81
2022-10-18T23:50:09.831Z,99258.03
2022-10-18T23:52:36.392Z,99254.06
2022-10-18T23:55:03.007Z,99260.53
2022-10-18T23:57:29.629Z,99275.88
2022-10-18T23:59:56.266Z,99266.63
